Time;durP1;ratioP1;P1;durP2;ratioP2;P2;SDS_P1;SDS_P2;PMS_P1;PMS_P2;Temp;Humidity;BMP_temperature;BMP_pressure;BME280_temperature;BME280_humidity;BME280_pressure;Samples;Min_cycle;Max_cycle;Signal;HPM_P1;HPM_P2
2023/01/15 00:01:21;;;;;;;6.90;2.00;;;7.10;99.90;;;;;;5011523;28;20049;-64
2023/01/15 00:03:47;;;;;;;6.88;1.90;;;7.10;99.90;;;;;;4984537;28;20575;-66
2023/01/15 00:06:14;;;;;;;14.07;2.30;;;7.20;99.90;;;;;;5011652;28;20052;-66
2023/01/15 00:08:40;;;;;;;5.35;1.90;;;7.20;99.90;;;;;;5008964;28;20063;-66
2023/01/15 00:11:06;;;;;;;10.95;1.85;;;7.20;99.90;;;;;;4977372;28;20474;-66
2023/01/15 00:13:31;;;;;;;7.68;2.10;;;7.20;99.90;;;;;;5008597;28;20077;-66
2023/01/15 00:16:04;;;;;;;14.98;2.58;;;7.20;99.90;;;;;;5013137;28;20130;-65
2023/01/15 00:18:30;;;;;;;10.30;1.98;;;7.10;99.90;;;;;;5005933;28;20042;-65
2023/01/15 00:21:00;;;;;;;9.07;2.75;;;7.20;99.90;;;;;;5014539;28;20037;-66
2023/01/15 00:29:00;;;;;;;7.13;2.10;;;7.10;99.90;;;;;;5000034;28;20107;-65
2023/01/15 00:31:27;;;;;;;8.23;2.10;;;7.10;99.90;;;;;;5004910;28;20041;-66
2023/01/15 00:33:53;;;;;;;7.93;2.25;;;7.10;99.90;;;;;;4995210;28;20420;-65
2023/01/15 00:36:18;;;;;;;7.53;2.30;;;7.10;99.90;;;;;;4995587;28;20035;-66
2023/01/15 00:38:44;;;;;;;10.05;1.60;;;7.10;99.90;;;;;;4995753;28;20540;-65
2023/01/15 00:41:09;;;;;;;7.07;2.47;;;7.10;99.90;;;;;;5013672;28;20034;-65
2023/01/15 00:43:35;;;;;;;9.18;2.13;;;7.10;99.90;;;;;;5007038;28;20188;-65
2023/01/15 00:46:01;;;;;;;6.13;1.67;;;7.10;99.90;;;;;;5007947;28;20045;-65
2023/01/15 00:48:27;;;;;;;10.15;2.08;;;7.10;99.90;;;;;;5003081;28;20038;-65
2023/01/15 00:50:52;;;;;;;8.73;1.95;;;7.10;99.90;;;;;;5014368;28;20045;-65
2023/01/15 00:53:18;;;;;;;11.82;1.98;;;7.10;99.90;;;;;;5014637;28;20115;-65
2023/01/15 00:55:43;;;;;;;11.07;2.05;;;7.10;99.90;;;;;;5011206;28;20041;-65
2023/01/15 00:58:09;;;;;;;7.68;2.40;;;7.10;99.90;;;;;;5013432;28;20038;-65
2023/01/15 01:00:34;;;;;;;10.05;1.90;;;7.10;99.90;;;;;;5011012;28;20619;-65
2023/01/15 01:03:00;;;;;;;12.32;2.20;;;7.10;99.90;;;;;;5008409;28;20048;-65
2023/01/15 01:05:25;;;;;;;11.45;2.00;;;7.10;99.90;;;;;;5014174;28;20377;-64
2023/01/15 01:07:51;;;;;;;12.70;2.05;;;7.10;99.90;;;;;;5014740;28;20109;-66
2023/01/15 01:10:17;;;;;;;12.40;2.17;;;7.10;99.90;;;;;;5001291;28;20507;-65
2023/01/15 01:12:42;;;;;;;8.85;2.22;;;7.10;99.90;;;;;;5012086;28;20105;-66
2023/01/15 01:15:09;;;;;;;9.43;2.00;;;7.00;99.90;;;;;;5014376;28;20077;-66
2023/01/15 01:17:37;;;;;;;8.35;1.85;;;7.00;99.90;;;;;;5009879;28;20045;-64
2023/01/15 01:20:03;;;;;;;10.38;2.40;;;7.00;99.90;;;;;;5014016;28;20038;-65
2023/01/15 01:22:29;;;;;;;7.40;1.92;;;7.00;99.90;;;;;;4996591;28;20097;-65
2023/01/15 01:24:55;;;;;;;11.02;2.25;;;7.00;99.90;;;;;;5025591;28;20084;-64
2023/01/15 01:27:20;;;;;;;7.95;1.65;;;7.00;99.90;;;;;;5001691;28;20072;-64
2023/01/15 01:29:46;;;;;;;8.63;1.65;;;7.00;99.90;;;;;;5012802;28;20038;-65
2023/01/15 01:32:12;;;;;;;10.23;2.00;;;7.00;99.90;;;;;;5009731;28;20537;-65
2023/01/15 01:34:38;;;;;;;10.68;1.98;;;7.00;99.90;;;;;;5004921;28;20060;-65
2023/01/15 01:37:03;;;;;;;9.40;2.10;;;7.00;99.90;;;;;;5013761;28;20042;-65
2023/01/15 01:39:29;;;;;;;6.85;1.60;;;7.00;99.90;;;;;;5013916;28;20507;-65
2023/01/15 01:41:54;;;;;;;6.95;1.98;;;7.00;99.90;;;;;;5010307;28;20087;-64
2023/01/15 01:44:32;;;;;;;10.18;1.98;;;7.00;99.90;;;;;;5005491;28;20429;-65
2023/01/15 01:47:04;;;;;;;11.10;2.20;;;7.10;99.90;;;;;;5005989;28;20515;-65
2023/01/15 01:49:30;;;;;;;8.93;1.65;;;7.00;99.90;;;;;;5010263;28;20038;-65
2023/01/15 01:52:02;;;;;;;8.75;2.05;;;7.00;99.90;;;;;;5007116;28;20121;-65
2023/01/15 01:54:31;;;;;;;12.15;2.00;;;7.00;99.90;;;;;;5012718;28;20057;-65
2023/01/15 01:56:57;;;;;;;5.30;1.95;;;7.00;99.90;;;;;;5013863;28;20053;-64
2023/01/15 01:59:25;;;;;;;10.93;2.10;;;7.00;99.90;;;;;;5003391;28;20038;-64
2023/01/15 02:01:51;;;;;;;12.52;2.00;;;7.00;99.90;;;;;;5012892;28;20069;-64
2023/01/15 02:04:19;;;;;;;6.35;1.73;;;7.00;99.90;;;;;;5013535;28;20042;-65
2023/01/15 02:06:45;;;;;;;10.25;2.22;;;7.00;99.90;;;;;;5006019;28;20057;-65
2023/01/15 02:09:11;;;;;;;7.63;1.70;;;7.00;99.90;;;;;;5000545;28;20057;-64
2023/01/15 02:11:37;;;;;;;9.90;2.08;;;7.00;99.90;;;;;;5012699;28;20041;-65
2023/01/15 02:14:44;;;;;;;11.60;2.42;;;7.00;99.90;;;;;;5013344;28;20131;-65
2023/01/15 02:17:41;;;;;;;15.25;2.25;;;6.90;99.90;;;;;;4982488;28;20107;-65
2023/01/15 02:20:29;;;;;;;12.35;2.53;;;7.00;99.90;;;;;;5001093;28;20173;-65
2023/01/15 02:23:06;;;;;;;11.40;2.60;;;6.90;99.90;;;;;;5006817;28;20125;-65
2023/01/15 02:26:19;;;;;;;10.63;2.10;;;6.90;99.90;;;;;;5010364;28;20555;-65
2023/01/15 02:28:48;;;;;;;9.65;2.00;;;6.90;99.90;;;;;;4987376;28;20042;-65
2023/01/15 02:31:26;;;;;;;7.50;1.83;;;6.90;99.90;;;;;;5008808;28;20857;-65
2023/01/15 02:34:02;;;;;;;7.25;1.70;;;6.90;99.90;;;;;;5011487;28;20065;-65
2023/01/15 02:36:32;;;;;;;10.82;2.40;;;6.90;99.90;;;;;;5012527;28;20042;-65
2023/01/15 02:39:01;;;;;;;17.02;2.00;;;6.90;99.90;;;;;;5005232;28;20068;-64
2023/01/15 02:41:34;;;;;;;7.13;2.08;;;6.90;99.90;;;;;;5001784;28;20521;-65
2023/01/15 02:44:02;;;;;;;12.55;2.90;;;6.90;99.90;;;;;;5012518;28;20034;-65
2023/01/15 02:46:32;;;;;;;10.18;1.73;;;6.90;99.90;;;;;;5012580;28;20037;-65
2023/01/15 02:49:00;;;;;;;8.45;1.75;;;6.90;99.90;;;;;;5005963;28;20519;-64
2023/01/15 02:51:33;;;;;;;15.65;2.50;;;6.90;99.90;;;;;;5004277;28;20046;-65
2023/01/15 02:54:05;;;;;;;6.47;1.95;;;6.90;99.90;;;;;;5005256;28;20143;-65
2023/01/15 02:56:34;;;;;;;13.65;2.10;;;6.90;99.90;;;;;;5003106;28;20038;-65
2023/01/15 02:59:06;;;;;;;10.68;1.85;;;6.90;99.90;;;;;;4999317;28;20045;-65
2023/01/15 03:01:39;;;;;;;11.57;2.05;;;6.90;99.90;;;;;;5012068;28;20037;-65
2023/01/15 03:04:31;;;;;;;10.00;2.22;;;6.90;99.90;;;;;;5032169;28;20033;-65
2023/01/15 03:07:04;;;;;;;;;;;6.90;99.90;;;;;;4966188;28;20049;-65
2023/01/15 03:09:30;;;;;;;9.57;2.05;;;6.80;99.90;;;;;;5011756;28;19921;-65
2023/01/15 03:12:03;;;;;;;12.10;2.00;;;6.80;99.90;;;;;;5012163;28;20065;-66
2023/01/15 03:14:43;;;;;;;14.65;2.67;;;6.80;99.90;;;;;;4985294;28;20060;-65
2023/01/15 03:17:29;;;;;;;9.57;2.30;;;6.70;99.90;;;;;;4994204;28;20045;-65
2023/01/15 03:20:12;;;;;;;11.80;2.33;;;6.70;99.90;;;;;;5011966;28;20060;-65
2023/01/15 03:22:43;;;;;;;11.02;2.40;;;6.70;99.90;;;;;;5007233;28;20045;-64
2023/01/15 03:25:16;;;;;;;13.18;2.03;;;6.80;99.90;;;;;;5008494;28;20496;-65
2023/01/15 03:27:42;;;;;;;8.48;2.20;;;6.80;99.90;;;;;;5011864;28;20038;-65
2023/01/15 03:30:08;;;;;;;15.30;2.97;;;6.80;99.90;;;;;;5005426;28;20042;-64
2023/01/15 03:32:34;;;;;;;11.90;2.13;;;6.70;99.90;;;;;;5011175;28;20046;-64
2023/01/15 03:35:02;;;;;;;15.85;2.90;;;6.80;99.90;;;;;;5011885;28;20053;-65
2023/01/15 03:37:28;;;;;;;17.55;2.90;;;6.80;99.90;;;;;;5006610;28;20168;-66
2023/01/15 03:39:56;;;;;;;12.18;2.15;;;6.70;99.90;;;;;;5001839;28;20030;-65
2023/01/15 03:42:36;;;;;;;11.10;2.30;;;6.70;99.90;;;;;;5011220;28;20596;-65
2023/01/15 03:45:21;;;;;;;9.05;2.10;;;6.70;99.90;;;;;;5012171;28;20484;-65
2023/01/15 03:48:16;;;;;;;7.30;2.15;;;6.70;99.90;;;;;;5003997;28;20104;-65
2023/01/15 03:51:07;;;;;;;9.15;2.28;;;6.70;99.90;;;;;;5009646;28;20137;-66
2023/01/15 03:53:46;;;;;;;8.20;1.85;;;6.60;99.90;;;;;;5011976;28;20070;-65
2023/01/15 03:56:30;;;;;;;11.85;2.47;;;6.60;99.90;;;;;;5000878;28;20112;-65
2023/01/15 03:59:01;;;;;;;12.20;2.58;;;6.60;99.90;;;;;;4999361;28;20041;-65
2023/01/15 04:01:33;;;;;;;10.27;2.40;;;6.50;99.90;;;;;;4991589;28;20042;-64
2023/01/15 04:04:01;;;;;;;13.18;2.33;;;6.50;99.90;;;;;;4994733;28;20034;-65
2023/01/15 04:06:29;;;;;;;12.23;2.47;;;6.50;99.90;;;;;;4984839;28;20037;-64
2023/01/15 04:08:56;;;;;;;12.35;2.05;;;6.50;99.90;;;;;;4992280;28;20074;-65
2023/01/15 04:11:24;;;;;;;10.60;2.20;;;6.50;99.90;;;;;;4991739;28;20045;-65
2023/01/15 04:13:50;;;;;;;8.70;2.28;;;6.50;99.90;;;;;;4993147;28;20037;-65
2023/01/15 04:16:25;;;;;;;11.02;2.67;;;6.50;99.90;;;;;;5006598;28;20092;-66
2023/01/15 04:18:51;;;;;;;10.65;2.00;;;6.60;99.90;;;;;;5011378;28;20045;-66
2023/01/15 04:21:17;;;;;;;9.00;2.30;;;6.50;99.90;;;;;;5001511;28;20163;-65
2023/01/15 04:23:43;;;;;;;8.85;1.95;;;6.60;99.90;;;;;;5010159;28;20496;-64
2023/01/15 04:26:08;;;;;;;11.07;1.92;;;6.60;99.90;;;;;;4991952;28;20053;-65
2023/01/15 04:28:34;;;;;;;10.18;2.17;;;6.60;99.90;;;;;;4992580;28;20046;-65
2023/01/15 04:31:00;;;;;;;10.82;2.30;;;6.60;99.90;;;;;;5004600;28;20037;-65
2023/01/15 04:33:25;;;;;;;9.45;2.08;;;6.60;99.90;;;;;;5011321;28;20503;-65
2023/01/15 04:35:51;;;;;;;6.93;2.03;;;6.60;99.90;;;;;;5007613;28;20097;-66
2023/01/15 04:38:17;;;;;;;10.60;2.00;;;6.70;99.90;;;;;;5003302;28;20132;-65
2023/01/15 04:46:12;;;;;;;9.30;2.00;;;6.70;99.90;;;;;;4995432;28;20046;-65
2023/01/15 04:48:38;;;;;;;10.15;2.00;;;6.60;99.90;;;;;;5010304;28;20046;-66
2023/01/15 04:51:06;;;;;;;8.48;1.92;;;6.60;99.90;;;;;;5010800;28;20049;-66
2023/01/15 04:53:32;;;;;;;10.00;2.00;;;6.60;99.90;;;;;;4999215;28;20326;-65
2023/01/15 04:56:02;;;;;;;10.75;2.03;;;6.60;99.90;;;;;;5010367;28;20438;-65
2023/01/15 04:58:29;;;;;;;15.23;2.33;;;6.60;99.90;;;;;;5011285;28;20069;-64
2023/01/15 05:00:55;;;;;;;11.48;2.28;;;6.60;99.90;;;;;;5007813;28;20372;-65
2023/01/15 05:03:20;;;;;;;7.63;1.90;;;6.60;99.90;;;;;;5010446;28;20130;-66
2023/01/15 05:05:46;;;;;;;7.68;1.80;;;6.50;99.90;;;;;;5000769;28;20030;-64
2023/01/15 05:08:11;;;;;;;7.18;1.80;;;6.50;99.90;;;;;;5014209;28;20509;-65
2023/01/15 05:10:37;;;;;;;8.18;2.38;;;6.50;99.90;;;;;;5000939;28;20315;-65
2023/01/15 05:13:02;;;;;;;8.07;1.85;;;6.50;99.90;;;;;;5010612;28;20074;-65
2023/01/15 05:15:28;;;;;;;10.25;2.17;;;6.50;99.90;;;;;;5014209;28;20423;-65
2023/01/15 05:17:55;;;;;;;16.85;2.22;;;6.50;99.90;;;;;;5010557;28;20496;-66
2023/01/15 05:20:20;;;;;;;5.57;1.70;;;6.50;99.90;;;;;;5008543;28;20591;-66
2023/01/15 05:22:46;;;;;;;9.70;1.95;;;6.40;99.90;;;;;;5012512;28;20053;-66
2023/01/15 05:25:11;;;;;;;8.38;1.67;;;6.40;99.90;;;;;;5014382;28;20128;-65
2023/01/15 05:27:37;;;;;;;9.38;1.92;;;6.40;99.90;;;;;;5002016;28;20030;-65
2023/01/15 05:30:03;;;;;;;6.90;1.70;;;6.40;99.90;;;;;;5013589;28;20133;-64
2023/01/15 05:32:29;;;;;;;8.20;1.77;;;6.40;99.90;;;;;;5013736;28;20037;-64
2023/01/15 05:34:55;;;;;;;10.10;1.88;;;6.40;99.90;;;;;;5014134;28;20061;-65
2023/01/15 05:37:21;;;;;;;12.75;2.00;;;6.40;99.90;;;;;;4995241;28;20497;-65
2023/01/15 05:39:46;;;;;;;6.00;2.13;;;6.40;99.90;;;;;;5001023;28;20038;-65
2023/01/15 05:42:12;;;;;;;9.18;1.73;;;6.40;99.90;;;;;;4994055;28;20051;-65
2023/01/15 05:44:38;;;;;;;13.00;2.38;;;6.40;99.90;;;;;;4995950;28;20042;-66
2023/01/15 05:47:06;;;;;;;8.57;1.90;;;6.50;99.90;;;;;;5007022;28;20041;-65
2023/01/15 05:49:32;;;;;;;7.68;1.70;;;6.50;99.90;;;;;;5013378;28;20042;-63
2023/01/15 05:51:59;;;;;;;5.05;1.83;;;6.60;99.90;;;;;;5007630;28;20126;-65
2023/01/15 05:54:27;;;;;;;8.40;1.55;;;6.50;99.90;;;;;;5013227;28;20176;-65
2023/01/15 05:56:54;;;;;;;6.20;1.70;;;6.50;99.90;;;;;;4994213;28;20042;-65
2023/01/15 05:59:22;;;;;;;5.90;1.63;;;6.40;99.90;;;;;;4993449;28;20045;-65
2023/01/15 06:01:48;;;;;;;5.15;1.40;;;6.30;99.90;;;;;;4987837;28;20050;-65
2023/01/15 06:04:14;;;;;;;6.95;1.42;;;6.30;99.90;;;;;;5010432;28;20455;-65
2023/01/15 06:06:41;;;;;;;12.07;2.13;;;6.20;99.90;;;;;;5002673;28;20078;-65
2023/01/15 06:09:07;;;;;;;8.27;2.13;;;6.20;99.90;;;;;;5015932;22;20073;-69
2023/01/15 06:11:33;;;;;;;9.60;2.05;;;6.10;99.90;;;;;;4977710;28;20488;-69
2023/01/15 06:13:58;;;;;;;4.47;1.52;;;6.10;99.90;;;;;;5002710;28;20134;-69
2023/01/15 06:16:24;;;;;;;12.32;2.38;;;6.00;99.90;;;;;;4978553;28;21176;-69
2023/01/15 06:18:50;;;;;;;10.18;2.10;;;6.00;99.90;;;;;;4967434;28;20038;-69
2023/01/15 06:21:16;;;;;;;8.18;2.00;;;6.10;99.90;;;;;;4948290;28;20564;-69
2023/01/15 06:23:43;;;;;;;7.63;1.92;;;6.10;99.90;;;;;;4956901;28;20046;-69
2023/01/15 06:26:14;;;;;;;10.48;2.08;;;6.10;99.90;;;;;;4960237;28;20437;-69
2023/01/15 06:28:40;;;;;;;9.93;2.42;;;6.10;99.90;;;;;;4976473;28;20554;-69
2023/01/15 06:31:08;;;;;;;10.55;1.80;;;6.20;99.90;;;;;;4973463;28;20053;-70
2023/01/15 06:33:34;;;;;;;11.40;2.00;;;6.20;99.90;;;;;;4970150;28;20094;-68
2023/01/15 06:36:08;;;;;;;6.88;1.90;;;6.10;99.90;;;;;;4978207;28;20038;-68
2023/01/15 06:38:34;;;;;;;11.70;2.10;;;6.10;99.90;;;;;;4975446;28;20073;-69
2023/01/15 06:47:19;;;;;;;8.35;1.90;;;6.00;99.90;;;;;;4970143;28;20509;-69
2023/01/15 06:49:53;;;;;;;8.93;2.13;;;6.20;99.90;;;;;;4987598;28;20086;-70
2023/01/15 06:52:22;;;;;;;10.55;2.03;;;6.10;99.90;;;;;;4975900;28;20046;-70
2023/01/15 06:54:48;;;;;;;11.55;1.70;;;6.10;99.90;;;;;;4949070;28;20043;-70
2023/01/15 06:57:13;;;;;;;10.95;1.80;;;6.00;99.90;;;;;;4963747;28;20050;-72
2023/01/15 06:59:39;;;;;;;8.40;1.90;;;6.00;99.90;;;;;;4969856;28;20057;-70
2023/01/15 07:02:05;;;;;;;8.10;1.92;;;6.00;99.90;;;;;;4959299;28;20054;-70
2023/01/15 07:04:31;;;;;;;7.97;1.90;;;5.90;99.90;;;;;;4970865;28;20181;-70
2023/01/15 07:06:56;;;;;;;13.10;2.50;;;5.90;99.90;;;;;;4969786;28;20034;-70
2023/01/15 07:09:22;;;;;;;13.20;2.42;;;5.90;99.90;;;;;;4975030;28;20454;-70
2023/01/15 07:11:48;;;;;;;8.27;2.08;;;5.90;99.90;;;;;;4971517;28;20051;-70
2023/01/15 07:14:37;;;;;;;8.02;1.70;;;5.80;99.90;;;;;;4982490;28;20101;-69
2023/01/15 07:17:03;;;;;;;8.80;1.63;;;5.80;99.90;;;;;;4956590;28;20105;-70
2023/01/15 07:19:28;;;;;;;10.00;2.08;;;5.80;99.90;;;;;;4961526;28;20755;-70
2023/01/15 07:21:54;;;;;;;6.50;2.00;;;5.70;99.90;;;;;;4961624;28;20034;-71
2023/01/15 07:24:20;;;;;;;7.72;1.85;;;5.70;99.90;;;;;;4960794;28;20047;-70
2023/01/15 07:26:46;;;;;;;8.45;1.70;;;5.70;99.90;;;;;;4961878;28;20039;-71
2023/01/15 07:29:12;;;;;;;11.90;2.22;;;5.70;99.90;;;;;;4961266;28;20144;-70
2023/01/15 07:31:39;;;;;;;6.53;1.50;;;5.70;99.90;;;;;;4969387;28;20049;-72
2023/01/15 07:34:05;;;;;;;12.57;1.67;;;5.70;99.90;;;;;;4967199;28;20049;-70
2023/01/15 07:36:31;;;;;;;7.53;2.33;;;5.70;99.90;;;;;;4960705;28;20050;-71
2023/01/15 07:38:56;;;;;;;7.82;1.90;;;5.60;99.90;;;;;;4960007;28;20114;-71
2023/01/15 07:49:45;;;;;;;10.45;2.40;;;5.60;99.90;;;;;;4955894;28;20395;-69
2023/01/15 07:52:16;;;;;;;7.32;1.70;;;5.60;99.90;;;;;;4966011;28;20041;-69
2023/01/15 07:54:43;;;;;;;9.00;1.60;;;5.60;99.90;;;;;;4968431;28;20092;-69
2023/01/15 07:57:10;;;;;;;6.28;1.98;;;5.60;99.90;;;;;;4978393;28;20131;-69
2023/01/15 08:00:29;;;;;;;10.07;2.17;;;5.50;99.90;;;;;;4973021;28;20043;-70
2023/01/15 08:03:08;;;;;;;9.23;1.92;;;5.60;99.90;;;;;;4983549;28;20027;-70
2023/01/15 08:05:33;;;;;;;9.43;2.25;;;5.60;99.90;;;;;;4968493;28;20043;-70
2023/01/15 08:07:59;;;;;;;9.30;1.83;;;5.60;99.90;;;;;;4954490;28;20508;-69
2023/01/15 08:10:25;;;;;;;11.77;2.08;;;5.60;99.90;;;;;;4976688;28;20125;-70
2023/01/15 08:15:39;;;;;;;11.25;2.13;;;5.60;99.90;;;;;;4964295;28;20523;-70
2023/01/15 08:18:06;;;;;;;10.13;2.13;;;5.60;99.90;;;;;;4964592;28;20047;-70
2023/01/15 08:20:33;;;;;;;7.70;1.83;;;5.60;99.90;;;;;;4970443;28;20141;-70
2023/01/15 08:23:00;;;;;;;10.38;2.03;;;5.70;99.90;;;;;;4969329;28;20501;-70
2023/01/15 08:25:26;;;;;;;8.63;2.22;;;5.70;99.90;;;;;;4968730;28;20118;-71
2023/01/15 08:27:52;;;;;;;7.13;1.98;;;5.80;99.90;;;;;;4967174;28;20117;-70
2023/01/15 08:30:22;;;;;;;8.25;1.70;;;5.80;99.90;;;;;;4962336;28;20704;-70
2023/01/15 08:32:47;;;;;;;7.63;1.75;;;5.70;99.90;;;;;;4958199;28;20053;-71
2023/01/15 08:35:13;;;;;;;5.85;1.83;;;5.70;99.90;;;;;;4958639;28;20050;-71
2023/01/15 08:37:42;;;;;;;9.15;1.80;;;5.60;99.90;;;;;;4987486;28;20054;-71
2023/01/15 08:40:09;;;;;;;7.88;2.45;;;5.70;99.90;;;;;;4968180;28;20065;-71
2023/01/15 08:42:34;;;;;;;8.60;2.08;;;5.70;99.90;;;;;;4968035;28;20459;-71
2023/01/15 08:45:00;;;;;;;7.53;1.60;;;5.70;99.90;;;;;;4954327;28;20051;-71
2023/01/15 08:47:26;;;;;;;11.75;1.73;;;5.70;99.90;;;;;;4976995;28;20043;-71
2023/01/15 08:49:51;;;;;;;6.63;1.95;;;5.80;99.90;;;;;;4982736;28;20122;-71
2023/01/15 08:52:17;;;;;;;6.43;1.80;;;6.00;99.90;;;;;;4972812;28;20120;-71
2023/01/15 08:54:43;;;;;;;6.18;1.92;;;6.10;99.90;;;;;;4972276;28;20043;-71
2023/01/15 08:57:10;;;;;;;5.50;1.20;;;6.20;99.90;;;;;;4980933;28;20037;-71
2023/01/15 08:59:36;;;;;;;10.05;1.90;;;6.20;99.90;;;;;;4974353;28;20149;-70
2023/01/15 09:02:02;;;;;;;8.25;1.60;;;6.20;99.90;;;;;;4979966;28;20125;-71
2023/01/15 09:04:27;;;;;;;7.88;2.03;;;6.10;99.90;;;;;;4977712;28;20405;-70
2023/01/15 09:06:53;;;;;;;4.15;1.58;;;6.10;99.90;;;;;;4963932;28;20069;-70
2023/01/15 09:09:19;;;;;;;6.32;1.88;;;5.90;99.90;;;;;;4958246;28;20476;-70
2023/01/15 09:11:45;;;;;;;6.78;1.50;;;5.80;99.90;;;;;;4962612;28;20445;-71
2023/01/15 09:14:12;;;;;;;5.97;1.65;;;5.80;99.90;;;;;;4969013;28;20516;-71
2023/01/15 09:16:38;;;;;;;7.18;1.58;;;5.60;99.90;;;;;;4965702;28;20131;-70
2023/01/15 09:19:05;;;;;;;9.50;1.92;;;5.60;99.90;;;;;;4975596;28;20378;-70
2023/01/15 09:21:32;;;;;;;10.48;2.13;;;5.40;99.90;;;;;;4982152;28;20038;-71
2023/01/15 09:23:57;;;;;;;6.65;1.90;;;5.10;99.90;;;;;;4975063;28;20122;-69
2023/01/15 09:26:28;;;;;;;8.88;2.30;;;4.60;99.90;;;;;;4974802;28;20110;-70
2023/01/15 09:28:55;;;;;;;7.22;1.60;;;4.20;99.90;;;;;;4956683;28;20062;-70
2023/01/15 09:31:21;;;;;;;10.45;2.00;;;3.90;99.90;;;;;;4985021;28;20050;-69
2023/01/15 09:33:47;;;;;;;4.93;1.83;;;3.90;99.90;;;;;;4958139;28;20521;-69
2023/01/15 09:36:21;;;;;;;7.53;1.90;;;4.00;99.90;;;;;;4956766;28;20050;-69
2023/01/15 09:38:48;;;;;;;11.30;2.80;;;4.00;99.90;;;;;;4964319;28;20101;-69
2023/01/15 09:44:26;;;;;;;7.03;2.00;;;4.20;99.90;;;;;;4976834;28;20520;-69
2023/01/15 09:47:16;;;;;;;12.48;2.03;;;4.30;99.90;;;;;;4966944;28;20043;-69
2023/01/15 09:50:07;;;;;;;10.50;1.90;;;4.50;99.90;;;;;;4966321;28;20046;-69
2023/01/15 09:52:59;;;;;;;9.02;1.80;;;4.60;99.90;;;;;;4974766;28;20089;-69
2023/01/15 09:55:29;;;;;;;8.68;2.35;;;4.80;99.90;;;;;;4976581;28;20049;-69
2023/01/15 09:57:59;;;;;;;7.88;1.70;;;4.90;99.90;;;;;;4965374;28;20046;-69
2023/01/15 10:00:37;;;;;;;9.32;1.95;;;5.10;99.90;;;;;;4974680;28;20050;-69
2023/01/15 10:03:15;;;;;;;7.60;1.70;;;5.20;99.90;;;;;;4978020;28;20034;-69
2023/01/15 10:05:46;;;;;;;6.97;1.50;;;5.20;99.90;;;;;;4975831;28;20093;-69
2023/01/15 10:08:18;;;;;;;10.43;1.70;;;5.10;99.90;;;;;;4972971;28;20043;-70
2023/01/15 10:10:51;;;;;;;7.25;1.88;;;5.10;99.90;;;;;;4974136;28;20093;-70
2023/01/15 10:13:17;;;;;;;10.38;2.35;;;5.20;99.90;;;;;;4968952;28;20081;-70
2023/01/15 10:15:45;;;;;;;8.23;1.80;;;5.20;99.90;;;;;;4956880;28;20078;-69
2023/01/15 10:18:29;;;;;;;11.02;1.95;;;5.20;99.90;;;;;;4963238;28;20580;-70
2023/01/15 10:21:23;;;;;;;10.27;1.80;;;5.20;99.90;;;;;;4985529;28;20031;-70
2023/01/15 10:24:04;;;;;;;9.77;1.70;;;5.40;99.90;;;;;;4972812;28;20051;-71
2023/01/15 10:26:56;;;;;;;7.10;2.35;;;5.40;99.90;;;;;;4962895;28;20926;-70
2023/01/15 10:29:32;;;;;;;;;;;5.40;99.90;;;;;;4972423;28;20047;-70
2023/01/15 10:32:16;;;;;;;7.75;2.10;;;5.50;99.90;;;;;;4956663;28;19917;-70
2023/01/15 10:35:06;;;;;;;5.40;1.77;;;5.50;99.90;;;;;;4956608;28;20047;-70
2023/01/15 10:37:45;;;;;;;8.80;2.13;;;5.40;99.90;;;;;;4978560;28;20054;-70
2023/01/15 10:40:42;;;;;;;12.73;1.95;;;5.40;99.90;;;;;;4961917;28;20528;-69
2023/01/15 10:43:29;;;;;;;9.02;1.75;;;5.40;99.90;;;;;;4974040;28;20038;-69
2023/01/15 10:45:58;;;;;;;11.02;2.00;;;5.50;99.90;;;;;;4977195;28;20121;-67
2023/01/15 10:48:37;;;;;;;12.77;2.53;;;5.50;99.90;;;;;;4978054;28;20039;-66
2023/01/15 10:51:29;;;;;;;7.43;2.85;;;5.50;99.90;;;;;;4971498;28;20034;-67
2023/01/15 10:53:57;;;;;;;10.73;1.80;;;5.70;99.90;;;;;;4955646;28;20047;-68
2023/01/15 10:56:48;;;;;;;8.98;2.00;;;5.90;99.90;;;;;;4973891;28;20097;-67
2023/01/15 10:59:31;;;;;;;8.40;2.10;;;6.10;99.90;;;;;;4976812;28;20049;-67
2023/01/15 11:01:58;;;;;;;14.65;2.58;;;6.30;99.90;;;;;;4987357;28;20035;-68
2023/01/15 11:04:30;;;;;;;9.13;1.80;;;6.30;99.90;;;;;;4963076;28;20560;-67
2023/01/15 11:06:56;;;;;;;;;;;6.40;99.90;;;;;;4973891;28;20039;-67
2023/01/15 11:09:30;;;;;;;6.55;1.70;;;6.50;99.90;;;;;;4963432;28;19924;-67
2023/01/15 11:20:55;;;;;;;8.50;1.83;;;6.50;99.90;;;;;;4972377;28;20113;-70
2023/01/15 11:23:22;;;;;;;11.63;2.47;;;6.40;99.90;;;;;;4952385;28;20066;-70
2023/01/15 11:25:59;;;;;;;8.15;2.15;;;6.10;99.90;;;;;;4962812;28;20064;-70
2023/01/15 11:28:45;;;;;;;9.07;1.80;;;6.10;99.90;;;;;;4955298;28;20039;-70
2023/01/15 11:31:12;;;;;;;9.30;2.25;;;6.30;99.90;;;;;;4971626;28;20517;-68
2023/01/15 11:33:39;;;;;;;9.75;1.83;;;6.50;99.90;;;;;;4958393;28;20046;-69
2023/01/15 11:36:17;;;;;;;12.45;1.88;;;6.50;99.90;;;;;;4987583;28;20552;-69
2023/01/15 11:38:45;;;;;;;12.05;2.13;;;6.60;99.90;;;;;;4974500;28;20452;-70
2023/01/15 11:41:21;;;;;;;5.38;1.63;;;6.90;99.90;;;;;;4974487;28;20042;-69
2023/01/15 11:52:21;;;;;;;8.85;1.75;;;7.00;99.90;;;;;;4973043;28;20038;-70
2023/01/15 11:54:53;;;;;;;8.50;2.35;;;7.10;99.90;;;;;;4983688;28;20045;-66
2023/01/15 11:57:29;;;;;;;7.88;2.03;;;7.20;99.90;;;;;;4974824;28;20091;-65
2023/01/15 11:59:56;;;;;;;8.48;1.95;;;7.20;99.90;;;;;;4955061;28;20126;-66
2023/01/15 12:05:17;;;;;;;7.82;2.00;;;7.00;99.90;;;;;;4955312;28;20051;-67
2023/01/15 12:07:45;;;;;;;10.15;2.00;;;7.00;99.90;;;;;;4961983;28;20544;-67
2023/01/15 12:11:02;;;;;;;13.52;2.22;;;7.20;99.90;;;;;;4958063;28;20119;-67
2023/01/15 12:13:26;;;;;;;8.18;2.45;;;7.20;99.90;;;;;;4959711;28;20505;-67
2023/01/15 12:15:54;;;;;;;10.43;2.35;;;7.30;99.90;;;;;;4974663;28;20699;-67
2023/01/15 12:18:38;;;;;;;11.27;2.50;;;7.40;99.90;;;;;;4957755;28;20050;-68
2023/01/15 12:21:23;;;;;;;7.65;2.33;;;7.60;99.90;;;;;;4979228;28;20047;-68
2023/01/15 12:24:12;;;;;;;9.88;3.20;;;7.70;99.90;;;;;;4964366;28;20134;-67
2023/01/15 12:27:16;;;;;;;11.80;2.22;;;7.50;99.90;;;;;;4971686;28;20030;-67
2023/01/15 12:30:05;;;;;;;7.55;2.10;;;7.40;99.90;;;;;;4959298;28;20089;-68
2023/01/15 12:32:36;;;;;;;6.00;1.95;;;7.30;99.90;;;;;;4963511;28;20083;-67
2023/01/15 12:35:07;;;;;;;12.63;2.78;;;7.20;99.90;;;;;;4968380;28;20046;-67
2023/01/15 12:37:56;;;;;;;8.90;2.08;;;7.20;99.90;;;;;;4982459;28;20126;-68
2023/01/15 12:40:31;;;;;;;13.70;2.50;;;7.20;99.90;;;;;;4976651;28;20718;-68
2023/01/15 12:45:45;;;;;;;9.07;1.70;;;7.10;99.90;;;;;;4958214;28;20050;-68
2023/01/15 12:48:23;;;;;;;12.05;2.78;;;7.00;99.90;;;;;;4964338;28;20176;-69
2023/01/15 12:50:51;;;;;;;5.40;2.35;;;7.00;99.90;;;;;;4962058;28;20049;-69
2023/01/15 12:53:33;;;;;;;10.88;2.65;;;6.90;99.90;;;;;;4968719;28;20043;-68
2023/01/15 12:56:06;;;;;;;14.55;2.28;;;6.90;99.90;;;;;;4971281;28;20661;-68
2023/01/15 12:58:53;;;;;;;7.45;2.22;;;6.90;99.90;;;;;;4967751;28;20056;-69
2023/01/15 13:01:34;;;;;;;8.30;2.33;;;6.90;99.90;;;;;;4963103;28;20050;-68
2023/01/15 13:04:06;;;;;;;10.05;2.25;;;6.90;99.90;;;;;;4968042;28;20516;-69
2023/01/15 13:06:36;;;;;;;13.90;2.50;;;6.80;99.90;;;;;;4981942;28;20120;-73
2023/01/15 13:09:17;;;;;;;9.73;2.55;;;6.80;99.90;;;;;;4970160;28;20189;-69
2023/01/15 13:11:43;;;;;;;13.85;3.00;;;6.80;99.90;;;;;;4965666;28;20038;-69
2023/01/15 13:14:18;;;;;;;7.07;2.35;;;6.80;99.90;;;;;;4977336;28;20042;-69
2023/01/15 13:17:07;;;;;;;13.23;2.03;;;6.90;99.90;;;;;;4980460;28;20125;-68
2023/01/15 13:19:53;;;;;;;9.45;2.55;;;7.10;99.90;;;;;;4987827;28;20053;-69
2023/01/15 13:22:25;;;;;;;9.02;2.30;;;7.30;99.90;;;;;;4967968;28;20070;-69
2023/01/15 13:24:59;;;;;;;11.35;2.33;;;7.30;99.90;;;;;;4967447;28;20045;-69
2023/01/15 13:27:41;;;;;;;10.80;2.33;;;7.40;99.90;;;;;;4974604;28;20045;-69
2023/01/15 13:30:25;;;;;;;;;;;7.40;99.90;;;;;;4967875;28;20050;-69
2023/01/15 13:33:30;;;;;;;9.30;1.83;;;7.30;99.90;;;;;;4974715;28;19913;-69
2023/01/15 13:36:20;;;;;;;11.48;3.08;;;7.20;99.90;;;;;;4940609;28;20061;-68
2023/01/15 13:38:51;;;;;;;11.68;2.70;;;7.20;99.90;;;;;;4994803;22;20467;-69
2023/01/15 13:44:19;;;;;;;8.93;2.75;;;7.30;99.90;;;;;;4988219;28;20060;-69
2023/01/15 13:46:47;;;;;;;10.70;2.50;;;7.30;99.90;;;;;;4989770;28;20038;-68
2023/01/15 13:49:20;;;;;;;7.32;2.53;;;7.30;99.90;;;;;;4992342;28;20042;-69
2023/01/15 13:52:06;;;;;;;10.18;2.40;;;7.30;99.90;;;;;;4988087;28;20106;-68
2023/01/15 13:54:39;;;;;;;10.15;3.03;;;7.30;99.90;;;;;;4986178;28;20093;-68
2023/01/15 13:57:20;;;;;;;6.00;2.25;;;7.40;99.90;;;;;;4983832;28;20038;-68
2023/01/15 13:59:48;;;;;;;6.53;2.15;;;7.30;99.90;;;;;;4980611;28;20039;-68
2023/01/15 14:02:26;;;;;;;7.05;2.30;;;7.30;99.90;;;;;;4986075;28;20046;-68
2023/01/15 14:05:33;;;;;;;8.55;2.63;;;7.20;99.90;;;;;;4987066;28;20030;-69
2023/01/15 14:08:15;;;;;;;6.90;1.83;;;7.10;99.90;;;;;;4971397;28;20105;-68
2023/01/15 14:10:41;;;;;;;7.03;2.38;;;7.10;99.90;;;;;;4980646;28;20096;-68
2023/01/15 14:13:45;;;;;;;9.45;2.45;;;7.10;99.90;;;;;;4983035;28;20031;-67